Список аэропортов
Фактическая погода:

21 августа, 07:00
Температура: +22°C (+22.0*)
Ветер: восточный 5 м/с
Давление: *758 мм
Без существ. явл.
Время (МСК)Темп. СВетерВлажностьДавлениеОблачностьОсадки
03:00+25В, 6 м/с60%1010 гПаясно
04:00+24В, 6 м/с60%1011 гПаясно
05:00+23В, 6 м/с59%1011 гПаясно
06:00+23В, 6 м/с60%1011 гПаясно
07:00+23В, 7 м/с61%1010 гПаясно
08:00+24В, 7 м/с58%1010 гПаясно
09:00+25В, 7 м/с55%1010 гПаясно
10:00+27В, 6 м/с50%1010 гПаясно
11:00+29В, 6 м/с46%1009 гПаясно
12:00+30В, 6 м/с43%1009 гПаясно
13:00+32В, 6 м/с41%1008 гПаясно
14:00+33В, 6 м/с39%1007 гПаясно
15:00+33В, 7 м/с38%1006 гПаясно
16:00+33В, 7 м/с36%1006 гПаясно
17:00+33В, 7 м/с36%1005 гПаясно
18:00+33В, 7 м/с36%1005 гПаясно
19:00+32В, 6 м/с38%1005 гПаясно
20:00+31В, 5 м/с40%1005 гПаясно
21:00+30В, 5 м/с40%1005 гПаясно
22:00+30СВ, 6 м/с42%1005 гПаясно
23:00+29В, 7 м/с43%1004 гПаясно
22 августа
00:00+28В, 7 м/с42%1004 гПаясно
01:00+28В, 6 м/с44%1004 гПаясно
02:00+27В, 6 м/с47%1003 гПаясно
03:00+26В, 6 м/с51%1003 гПас прояснениями
04:00+25В, 5 м/с54%1003 гПас прояснениями
05:00+25В, 4 м/с59%1004 гПамалооблачно
06:00+24В, 4 м/с64%1004 гПас прояснениями
07:00+24В, 5 м/с66%1004 гПаоблачно
08:00+24В, 3 м/с70%1004 гПаоблачносл. дождь
09:00+26В, 1 м/с63%1004 гПас прояснениями
10:00+28Ю, 1 м/с57%1004 гПаясно
11:00+31ЮВ, 2 м/с49%1004 гПамалооблачно
12:00+33ЮВ, 3 м/с40%1004 гПаясно
13:00+34Ю, 4 м/с41%1004 гПамалооблачнодождь
14:00+32Ю, 4 м/с52%1003 гПамалооблачнодождь
15:00+30Ю, 5 м/с63%1003 гПас прояснениямидождь
16:00+30Ю, 5 м/с71%1003 гПас прояснениямидождь
17:00+29ЮЗ, 4 м/с75%1004 гПаоблачнодождь
18:00+28ЮЗ, 3 м/с79%1004 гПаоблачнодождь
19:00+27ЮЗ, 3 м/с82%1004 гПаоблачносл. дождь
20:00+26З, 3 м/с86%1005 гПаоблачнодождь
21:00+25Ю, 2 м/с88%1005 гПаоблачнодождь
22:00+25ЮЗ, 3 м/с90%1004 гПаоблачно
23:00+24ЮЗ, 3 м/с94%1004 гПамалооблачно
23 августа
00:00+24Ю, 3 м/с95%1004 гПамалооблачно
01:00+24ЮЗ, 4 м/с94%1005 гПаясно
02:00+24ЮЗ, 4 м/с92%1005 гПаясно
03:00+24ЮЗ, 3 м/с94%1005 гПаясно